| time (UTC) | temp F | wind direction | speed MPH | gust MPH | rain 1hr in | rain 24hr in | rain mn in | humidity % | barometer mb |
| 20260505003056 | 58 | 0.0 | 3.0 | 0.00 | 0.00 | 0.00 | 82 | 1012.4 | |
| 20260505001539 | 59 | 0.0 | 3.0 | 0.00 | 0.00 | 0.00 | 80 | 1012.2 | |
| 20260505000109 | 59 | 1.0 | 6.0 | 0.00 | 0.00 | 0.00 | 79 | 1012.1 | |
| 20260504234538 | 59 | 1.0 | 5.0 | 0.00 | 0.00 | 0.00 | 79 | 1012.0 | |
| 20260504233017 | 60 | 1.0 | 4.0 | 0.00 | 0.00 | 0.00 | 79 | 1012.0 | |
| 20260504231503 | 60 | 0.0 | 3.0 | 0.00 | 0.00 | 0.00 | 78 | 1012.0 | |
| 20260504230011 | 60 | 1.0 | 4.0 | 0.00 | 0.00 | 0.00 | 77 | 1012.0 | |
| 20260504224559 | 60 | 0.0 | 5.0 | 0.00 | 0.00 | 0.00 | 77 | 1012.0 | |
| 20260504223021 | 61 | 0.0 | 3.0 | 0.00 | 0.00 | 0.00 | 77 | 1011.9 | |
| 20260504221507 | 61 | 0.0 | 3.0 | 0.00 | 0.00 | 0.00 | 77 | 1012.0 | |
| 20260504220040 | 61 | 1.0 | 5.0 | 0.00 | 0.00 | 0.00 | 78 | 1012.1 | |
| 20260504214525 | 61 | 1.0 | 5.0 | 0.00 | 0.00 | 0.00 | 78 | 1012.0 | |
| 20260504213049 | 61 | 0.0 | 6.0 | 0.00 | 0.00 | 0.00 | 78 | 1012.1 | |
| 20260504211534 | 61 | 0.0 | 4.0 | 0.00 | 0.00 | 0.00 | 77 | 1012.2 | |
| 20260504210012 | 61 | 0.0 | 5.0 | 0.00 | 0.00 | 0.00 | 77 | 1012.3 | |
| 20260504204606 | 62 | 2.0 | 4.0 | 0.00 | 0.00 | 0.00 | 76 | 1012.3 | |
| 20260504203029 | 62 | 1.0 | 5.0 | 0.00 | 0.00 | 0.00 | 76 | 1012.4 | |
| 20260504201630 | 62 | 1.0 | 5.0 | 0.00 | 0.00 | 0.00 | 76 | 1012.3 | |
| 20260504200147 | 62 | 1.0 | 7.0 | 0.00 | 0.00 | 0.00 | 76 | 1012.4 | |
| 20260504194517 | 63 | 1.0 | 5.0 | 0.00 | 0.00 | 0.00 | 74 | 1012.4 | |
| 20260504193043 | 63 | 2.0 | 8.0 | 0.00 | 0.00 | 0.00 | 73 | 1012.7 | |
| 20260504191526 | 64 | 2.0 | 6.0 | 0.00 | 0.00 | 0.00 | 73 | 1012.7 | |
| 20260504190040 | 65 | 0.0 | 4.0 | 0.00 | 0.00 | 0.00 | 72 | 1013.0 | |
| 20260504184527 | 64 | 2.0 | 5.0 | 0.00 | 0.00 | 0.00 | 70 | 1013.2 | |
| 20260504183004 | 65 | 1.0 | 5.0 | 0.00 | 0.00 | 0.00 | 71 | 1013.2 | |
| 20260504181559 | 66 | 1.0 | 5.0 | 0.00 | 0.00 | 0.00 | 68 | 1013.4 | |
| 20260504180019 | 66 | 1.0 | 4.0 | 0.00 | 0.00 | 0.00 | 69 | 1013.5 | |
| 20260504174553 | 66 | 1.0 | 5.0 | 0.00 | 0.00 | 0.00 | 69 | 1013.5 | |
| 20260504173033 | 67 | 2.0 | 6.0 | 0.00 | 0.00 | 0.00 | 67 | 1013.8 | |
| 20260504171513 | 68 | 1.0 | 5.0 | 0.00 | 0.00 | 0.00 | 67 | 1014.0 | |
| 20260504140109 | 63 | 1.0 | 4.0 | 0.00 | 0.00 | 0.00 | 66 | 1015.4 | |
| 20260504081550 | 48 | 0.0 | 0.0 | 0.00 | 0.00 | 0.00 | 78 | 1016.4 | |
| 20260504044547 | 50 | 0.0 | 2.0 | 0.00 | 0.00 | 0.00 | 74 | 1015.7 | |
| 20260504043004 | 51 | 0.0 | 2.0 | 0.00 | 0.00 | 0.00 | 72 | 1015.7 | |
| 20260504041534 | 51 | 0.0 | 2.0 | 0.00 | 0.00 | 0.00 | 71 | 1015.7 | |
| 20260504040003 | 50 | 0.0 | 2.0 | 0.00 | 0.00 | 0.00 | 72 | 1015.6 | |
| 20260504034516 | 50 | 0.0 | 1.0 | 0.00 | 0.00 | 0.00 | 75 | 1015.5 | |
| 20260504033048 | 49 | 0.0 | 1.0 | 0.00 | 0.00 | 0.00 | 74 | 1015.6 | |
| 20260504031605 | 49 | 0.0 | 1.0 | 0.00 | 0.00 | 0.00 | 72 | 1015.4 | |
| 20260504030049 | 49 | 0.0 | 1.0 | 0.00 | 0.00 | 0.00 | 70 | 1015.4 | |
| 20260504024525 | 49 | 0.0 | 1.0 | 0.00 | 0.00 | 0.00 | 68 | 1015.5 | |
| 20260504023031 | 49 | 0.0 | 0.0 | 0.00 | 0.00 | 0.00 | 65 | 1015.4 | |
| 20260504021600 | 50 | 0.0 | 1.0 | 0.00 | 0.00 | 0.00 | 61 | 1015.4 | |
| 20260504020048 | 51 | 0.0 | 1.0 | 0.00 | 0.00 | 0.00 | 61 | 1015.2 | |
| 20260504014537 | 51 | 0.0 | 1.0 | 0.00 | 0.00 | 0.00 | 58 | 1015.2 | |
| 20260504013022 | 51 | 0.0 | 1.0 | 0.00 | 0.00 | 0.00 | 58 | 1015.0 | |
| 20260504011540 | 52 | 0.0 | 0.0 | 0.00 | 0.00 | 0.00 | 58 | 1015.0 | |
| 20260504010048 | 52 | 0.0 | 0.0 | 0.00 | 0.00 | 0.00 | 55 | 1014.9 | |
| 20260504004537 | 53 | 0.0 | 1.0 | 0.00 | 0.00 | 0.00 | 53 | 1014.6 |